createdAt,value
2019-01-22T00:00:20.212Z,0
2019-01-22T00:01:20.216Z,0
2019-01-22T00:02:20.242Z,1.8
2019-01-22T00:03:20.262Z,1.8
2019-01-22T00:04:20.171Z,3.9
2019-01-22T00:05:20.209Z,1.8
2019-01-22T00:06:20.240Z,3.9
2019-01-22T00:07:25.657Z,3.9
2019-01-22T00:08:20.246Z,1.8
2019-01-22T00:09:20.195Z,3.9
2019-01-22T00:10:20.252Z,3.9
2019-01-22T00:11:20.296Z,6.6
2019-01-22T00:12:20.227Z,3.9
2019-01-22T00:13:20.304Z,3.9
2019-01-22T00:14:20.315Z,6.6
2019-01-22T00:15:20.175Z,3.9
2019-01-22T00:16:20.845Z,3.9
2019-01-22T00:17:20.240Z,3.9
2019-01-22T00:18:20.292Z,6.6
2019-01-22T00:19:20.241Z,6.6
2019-01-22T00:20:20.225Z,6.6
2019-01-22T00:21:20.235Z,6.6
2019-01-22T00:22:20.232Z,6.6
2019-01-22T00:23:20.289Z,6.6
2019-01-22T00:24:20.933Z,6.6
2019-01-22T00:25:20.307Z,6.6
2019-01-22T00:26:20.171Z,6.6
2019-01-22T00:27:20.234Z,9.5
2019-01-22T00:28:20.223Z,6.6
2019-01-22T00:29:20.306Z,6.6
2019-01-22T00:30:20.320Z,3.9
2019-01-22T00:31:20.172Z,3.9
2019-01-22T00:32:20.618Z,3.9
2019-01-22T00:33:20.285Z,3.9
2019-01-22T00:34:20.232Z,1.8
2019-01-22T00:35:20.312Z,1.8
2019-01-22T00:36:20.206Z,1.8
2019-01-22T00:37:20.192Z,0
2019-01-22T00:38:20.219Z,0
2019-01-22T00:39:20.234Z,0
2019-01-22T00:40:20.604Z,0
2019-01-22T00:41:20.233Z,3.9
2019-01-22T00:42:20.206Z,0
2019-01-22T00:43:20.309Z,0
2019-01-22T00:44:20.205Z,3.9
2019-01-22T00:45:20.233Z,6.6
2019-01-22T00:46:20.214Z,6.6
2019-01-22T00:47:20.185Z,6.6
2019-01-22T00:48:20.211Z,6.6
2019-01-22T00:49:20.922Z,6.6
2019-01-22T00:50:20.243Z,6.6
2019-01-22T00:51:20.272Z,3.9
2019-01-22T00:52:20.237Z,3.9
2019-01-22T00:53:20.170Z,3.9
2019-01-22T00:54:20.217Z,3.9
2019-01-22T00:55:20.207Z,1.8
2019-01-22T00:56:20.299Z,1.8
2019-01-22T00:57:20.875Z,1.8
2019-01-22T00:58:20.180Z,0
2019-01-22T00:59:20.154Z,0
2019-01-22T01:00:20.230Z,0
2019-01-22T01:01:20.204Z,0
2019-01-22T01:02:20.293Z,0
2019-01-22T01:03:20.222Z,0
2019-01-22T01:04:20.160Z,1.8
2019-01-22T01:05:20.740Z,1.8
2019-01-22T01:06:20.244Z,0
2019-01-22T01:07:20.285Z,0
2019-01-22T01:08:20.230Z,0
2019-01-22T01:09:20.412Z,0
2019-01-22T01:10:20.207Z,0
2019-01-22T01:11:20.199Z,0
2019-01-22T01:12:20.231Z,0
2019-01-22T01:13:20.776Z,0
2019-01-22T01:14:20.259Z,0
2019-01-22T01:15:20.151Z,1.8
2019-01-22T01:16:20.220Z,1.8
2019-01-22T01:17:20.214Z,1.8
2019-01-22T01:18:20.264Z,3.9
2019-01-22T01:19:20.222Z,3.9
2019-01-22T01:20:20.226Z,1.8
2019-01-22T01:21:20.392Z,1.8
2019-01-22T01:22:20.197Z,1.8
2019-01-22T01:23:20.301Z,0
2019-01-22T01:24:20.212Z,1.8
2019-01-22T01:25:22.027Z,3.9
2019-01-22T01:26:20.177Z,0
2019-01-22T01:27:20.213Z,0
2019-01-22T01:28:20.211Z,0
2019-01-22T01:29:20.394Z,0
2019-01-22T01:30:20.286Z,0
2019-01-22T01:31:20.493Z,0
2019-01-22T01:32:20.203Z,0
2019-01-22T01:33:20.200Z,0
2019-01-22T01:34:20.288Z,1.8
2019-01-22T01:35:20.217Z,1.8
2019-01-22T01:36:20.189Z,3.9
2019-01-22T01:37:20.160Z,0
2019-01-22T01:38:20.189Z,3.9
2019-01-22T01:39:20.190Z,1.8
2019-01-22T01:40:20.247Z,0
2019-01-22T01:41:20.220Z,3.9
2019-01-22T01:42:20.124Z,0
2019-01-22T01:43:20.181Z,1.8
2019-01-22T01:44:20.264Z,1.8
2019-01-22T01:45:20.280Z,0
2019-01-22T01:46:20.195Z,0
2019-01-22T01:47:20.151Z,0
2019-01-22T01:48:20.215Z,0
2019-01-22T01:49:20.233Z,1.8
2019-01-22T01:50:20.219Z,3.9
2019-01-22T01:51:20.185Z,3.9
2019-01-22T01:52:20.193Z,1.8
2019-01-22T01:53:26.270Z,1.8
2019-01-22T01:54:20.824Z,1.8
2019-01-22T01:55:20.179Z,3.9
2019-01-22T01:56:20.190Z,6.6
2019-01-22T01:57:20.180Z,6.6
2019-01-22T01:58:20.172Z,3.9
2019-01-22T01:59:20.219Z,3.9
2019-01-22T02:00:20.202Z,1.8
2019-01-22T02:01:20.282Z,1.8
2019-01-22T02:02:20.809Z,1.8
2019-01-22T02:03:20.199Z,1.8
2019-01-22T02:04:20.135Z,0
2019-01-22T02:05:20.224Z,0
2019-01-22T02:06:20.192Z,0
2019-01-22T02:07:20.185Z,1.8
2019-01-22T02:08:20.277Z,1.8
2019-01-22T02:09:20.161Z,3.9
2019-01-22T02:10:21.108Z,3.9
2019-01-22T02:11:20.157Z,6.6
2019-01-22T02:12:20.183Z,3.9
2019-01-22T02:13:20.164Z,3.9
2019-01-22T02:14:20.200Z,3.9
2019-01-22T02:15:20.188Z,3.9
2019-01-22T02:16:20.297Z,1.8
2019-01-22T02:17:20.192Z,9.5
2019-01-22T02:18:20.595Z,3.9
2019-01-22T02:19:20.171Z,9.5
2019-01-22T02:20:20.161Z,6.6
2019-01-22T02:21:20.235Z,12.4
2019-01-22T02:22:20.193Z,6.6
2019-01-22T02:23:20.183Z,1.8
2019-01-22T02:24:20.191Z,12.4
2019-01-22T02:25:20.190Z,6.6
2019-01-22T02:26:20.130Z,6.6
2019-01-22T02:27:20.284Z,1.8
2019-01-22T02:28:20.202Z,1.8
2019-01-22T02:29:20.158Z,0
2019-01-22T02:30:20.223Z,0
2019-01-22T02:31:20.188Z,1.8
2019-01-22T02:32:20.253Z,1.8
2019-01-22T02:33:20.238Z,0
2019-01-22T02:34:20.144Z,0
2019-01-22T02:35:20.964Z,0
2019-01-22T02:36:20.134Z,0
2019-01-22T02:37:20.192Z,0
2019-01-22T02:38:20.188Z,0
2019-01-22T02:39:20.181Z,0
2019-01-22T02:40:20.167Z,0
2019-01-22T02:41:20.184Z,0
2019-01-22T02:42:20.195Z,0
2019-01-22T02:43:20.877Z,0
2019-01-22T02:44:20.175Z,0
2019-01-22T02:45:20.202Z,0
2019-01-22T02:46:20.246Z,0
2019-01-22T02:47:20.141Z,0
2019-01-22T02:48:20.121Z,0
2019-01-22T02:49:20.168Z,0
2019-01-22T02:50:20.243Z,1.8
2019-01-22T02:51:20.162Z,1.8
2019-01-22T02:52:20.606Z,0
2019-01-22T02:53:20.127Z,0
2019-01-22T02:54:20.216Z,0
2019-01-22T02:55:20.178Z,0
2019-01-22T02:56:20.192Z,0
2019-01-22T02:57:20.175Z,0
2019-01-22T02:58:20.141Z,0
2019-01-22T02:59:20.237Z,0
2019-01-22T03:00:20.816Z,0
2019-01-22T03:01:20.146Z,0
2019-01-22T03:02:20.155Z,0
2019-01-22T03:03:20.235Z,0
2019-01-22T03:04:20.117Z,0
2019-01-22T03:05:20.167Z,0
2019-01-22T03:06:20.146Z,0
2019-01-22T03:07:20.177Z,0
2019-01-22T03:08:20.849Z,0
2019-01-22T03:09:20.123Z,0
2019-01-22T03:10:20.154Z,0
2019-01-22T03:11:20.161Z,0
2019-01-22T03:12:20.198Z,0
2019-01-22T03:13:20.144Z,0
2019-01-22T03:14:20.144Z,0
2019-01-22T03:15:20.105Z,0
2019-01-22T03:16:20.140Z,0
2019-01-22T03:17:20.598Z,0
2019-01-22T03:18:20.141Z,0
2019-01-22T03:19:20.146Z,0
2019-01-22T03:20:20.133Z,0
2019-01-22T03:21:20.207Z,0
2019-01-22T03:22:20.144Z,0
2019-01-22T03:23:20.136Z,0
2019-01-22T03:24:20.168Z,0
2019-01-22T03:25:21.101Z,0
2019-01-22T03:26:20.131Z,0
2019-01-22T03:27:20.137Z,0
2019-01-22T03:28:20.152Z,0
2019-01-22T03:29:20.220Z,0
2019-01-22T03:30:20.239Z,0
2019-01-22T03:31:20.193Z,0
2019-01-22T03:32:20.208Z,0
2019-01-22T03:33:22.336Z,0
2019-01-22T03:34:20.156Z,0
2019-01-22T03:35:20.131Z,0
2019-01-22T03:36:20.117Z,0
2019-01-22T03:37:20.094Z,0
2019-01-22T03:38:20.210Z,0
2019-01-22T03:39:20.152Z,0
2019-01-22T03:40:20.152Z,0
2019-01-22T03:41:20.171Z,0
2019-01-22T03:42:20.787Z,0
2019-01-22T03:43:20.198Z,0
2019-01-22T03:44:20.119Z,0
2019-01-22T03:45:20.156Z,0
2019-01-22T03:46:20.136Z,0
2019-01-22T03:47:20.147Z,0
2019-01-22T03:48:20.203Z,0
2019-01-22T03:49:20.191Z,0
2019-01-22T03:50:20.301Z,0
2019-01-22T03:51:20.120Z,0
2019-01-22T03:52:20.127Z,0
2019-01-22T03:53:20.144Z,0
2019-01-22T03:54:20.153Z,0
2019-01-22T03:55:20.145Z,0
2019-01-22T03:56:20.117Z,1.8
2019-01-22T03:57:20.194Z,1.8
2019-01-22T03:58:20.176Z,1.8
2019-01-22T03:59:20.705Z,1.8
2019-01-22T04:00:20.117Z,3.9
2019-01-22T04:01:20.131Z,1.8
2019-01-22T04:02:20.123Z,3.9
2019-01-22T04:03:20.201Z,1.8
2019-01-22T04:04:20.071Z,1.8
2019-01-22T04:05:20.123Z,0
2019-01-22T04:06:20.117Z,0
2019-01-22T04:07:20.246Z,0
2019-01-22T04:08:20.203Z,0
2019-01-22T04:09:20.098Z,0
2019-01-22T04:10:20.149Z,0
2019-01-22T04:11:20.123Z,0
2019-01-22T04:12:20.196Z,0
2019-01-22T04:13:20.112Z,0
2019-01-22T04:14:20.133Z,0
2019-01-22T04:15:20.072Z,0
2019-01-22T04:16:20.640Z,0
2019-01-22T04:17:20.110Z,6.6
2019-01-22T04:18:20.109Z,6.6
2019-01-22T04:19:20.109Z,6.6
2019-01-22T04:20:20.123Z,3.9
2019-01-22T04:21:20.115Z,1.8
2019-01-22T04:22:20.210Z,0
2019-01-22T04:23:20.094Z,0
2019-01-22T04:24:20.523Z,0
2019-01-22T04:25:20.159Z,0
2019-01-22T04:26:20.072Z,0
2019-01-22T04:27:20.199Z,0
2019-01-22T04:28:20.194Z,0
2019-01-22T04:29:20.110Z,3.9
2019-01-22T04:30:20.133Z,6.6
2019-01-22T04:31:20.060Z,6.6
2019-01-22T04:32:20.168Z,6.6
2019-01-22T04:33:20.691Z,3.9
2019-01-22T04:34:20.104Z,6.6
2019-01-22T04:35:20.120Z,3.9
2019-01-22T04:36:20.076Z,6.6
2019-01-22T04:37:20.106Z,6.6
2019-01-22T04:38:20.099Z,3.9
2019-01-22T04:39:20.090Z,3.9
2019-01-22T04:40:20.167Z,3.9
2019-01-22T04:41:20.312Z,3.9
2019-01-22T04:42:20.038Z,6.6
2019-01-22T04:43:20.106Z,6.6
2019-01-22T04:44:20.116Z,6.6
2019-01-22T04:45:20.172Z,6.6
2019-01-22T04:46:20.121Z,6.6
2019-01-22T04:47:20.063Z,6.6
2019-01-22T04:48:20.072Z,6.6
2019-01-22T04:49:20.166Z,6.6
2019-01-22T04:50:20.650Z,6.6
2019-01-22T04:51:20.104Z,6.6
2019-01-22T04:52:20.100Z,6.6
2019-01-22T04:53:20.137Z,1.8
2019-01-22T04:54:20.121Z,0
2019-01-22T04:55:20.148Z,0
2019-01-22T04:56:20.185Z,0
2019-01-22T04:57:20.176Z,0
2019-01-22T04:58:20.097Z,0
2019-01-22T04:59:20.841Z,1.8
2019-01-22T05:00:20.103Z,0
2019-01-22T05:01:20.139Z,3.9
2019-01-22T05:02:20.077Z,6.6
2019-01-22T05:03:20.073Z,3.9
2019-01-22T05:04:20.063Z,3.9
2019-01-22T05:05:20.131Z,3.9
2019-01-22T05:06:20.262Z,3.9
2019-01-22T05:07:20.732Z,1.8
2019-01-22T05:08:20.089Z,0
2019-01-22T05:09:20.054Z,1.8
2019-01-22T05:10:20.106Z,0
2019-01-22T05:11:20.141Z,1.8
2019-01-22T05:12:20.085Z,1.8
2019-01-22T05:13:20.159Z,3.9
2019-01-22T05:14:20.165Z,1.8
2019-01-22T05:15:20.044Z,3.9
2019-01-22T05:16:20.280Z,0
2019-01-22T05:17:20.133Z,0
2019-01-22T05:18:20.112Z,0
2019-01-22T05:19:20.173Z,0
2019-01-22T05:20:20.038Z,0
2019-01-22T05:21:20.081Z,0
2019-01-22T05:22:20.107Z,1.8
2019-01-22T05:23:20.105Z,3.9
2019-01-22T05:24:21.205Z,1.8
2019-01-22T05:25:20.082Z,1.8
2019-01-22T05:26:20.027Z,1.8
2019-01-22T05:27:20.104Z,1.8
2019-01-22T05:28:20.078Z,3.9
2019-01-22T05:29:20.151Z,1.8
2019-01-22T05:30:20.111Z,0
2019-01-22T05:31:20.121Z,1.8
2019-01-22T05:32:20.062Z,1.8
2019-01-22T05:33:20.633Z,0
2019-01-22T05:34:20.122Z,0
2019-01-22T05:35:20.169Z,0
2019-01-22T05:36:20.175Z,0
2019-01-22T05:37:20.047Z,0
2019-01-22T05:38:20.139Z,0
2019-01-22T05:39:20.061Z,1.8
2019-01-22T05:40:20.077Z,0
2019-01-22T05:41:20.617Z,6.6
2019-01-22T05:42:20.121Z,3.9
2019-01-22T05:43:20.064Z,3.9
2019-01-22T05:44:20.094Z,1.8
2019-01-22T05:45:20.084Z,1.8
2019-01-22T05:46:20.076Z,0
2019-01-22T05:47:20.103Z,1.8
2019-01-22T05:48:20.017Z,3.9
2019-01-22T05:49:20.515Z,0
2019-01-22T05:50:20.083Z,1.8
2019-01-22T05:51:20.126Z,1.8
2019-01-22T05:52:22.942Z,0
2019-01-22T05:53:24.533Z,1.8
2019-01-22T05:54:27.880Z,1.8
2019-01-22T05:55:23.100Z,3.9
2019-01-22T05:56:23.451Z,3.9
2019-01-22T05:57:22.628Z,3.9
2019-01-22T05:58:22.378Z,6.6
2019-01-22T05:59:22.596Z,3.9
2019-01-22T06:00:21.750Z,3.9
2019-01-22T06:01:23.067Z,3.9
2019-01-22T06:02:21.778Z,1.8
2019-01-22T06:03:23.490Z,0
2019-01-22T06:04:23.033Z,0
2019-01-22T06:05:22.541Z,0
2019-01-22T06:06:21.094Z,0
2019-01-22T06:07:21.102Z,1.8
2019-01-22T06:08:22.016Z,0
2019-01-22T06:09:23.939Z,0
2019-01-22T06:10:21.192Z,0
2019-01-22T06:11:21.558Z,1.8
2019-01-22T06:12:22.000Z,3.9
2019-01-22T06:13:21.385Z,3.9
2019-01-22T06:14:23.340Z,3.9
2019-01-22T06:15:21.779Z,3.9
2019-01-22T06:16:22.276Z,6.6
2019-01-22T06:17:24.524Z,1.8
2019-01-22T06:18:22.168Z,6.6
2019-01-22T06:19:21.366Z,6.6
2019-01-22T06:20:23.024Z,6.6
2019-01-22T06:21:21.663Z,9.5
2019-01-22T06:22:20.661Z,12.4
2019-01-22T06:23:22.214Z,9.5
2019-01-22T06:24:23.226Z,9.5
2019-01-22T06:25:22.204Z,6.6
2019-01-22T06:26:22.242Z,9.5
2019-01-22T06:27:24.422Z,0
2019-01-22T06:28:21.798Z,1.8
2019-01-22T06:29:21.156Z,6.6
2019-01-22T06:30:20.560Z,9.5
2019-01-22T06:32:24.644Z,12.4
2019-01-22T06:33:25.260Z,12.4
2019-01-22T06:34:23.946Z,18.3
2019-01-22T06:35:24.731Z,18.3
2019-01-22T06:36:25.407Z,15.4
2019-01-22T06:37:24.918Z,18.3
2019-01-22T06:38:24.742Z,12.4
2019-01-22T06:39:25.242Z,15.4
2019-01-22T06:41:28.064Z,12.4
2019-01-22T06:42:25.799Z,9.5
2019-01-22T06:43:27.207Z,12.4
2019-01-22T06:44:26.878Z,9.5
2019-01-22T06:45:25.903Z,9.5
2019-01-22T06:46:26.931Z,15.4
2019-01-22T06:47:28.243Z,18.3
2019-01-22T06:48:26.489Z,15.4
2019-01-22T06:49:27.548Z,18.3
2019-01-22T06:51:33.208Z,15.4
2019-01-22T06:52:33.250Z,15.4
2019-01-22T06:53:33.882Z,12.4
2019-01-22T06:54:32.633Z,12.4
2019-01-22T06:55:31.893Z,15.4
2019-01-22T06:56:31.404Z,15.4
2019-01-22T06:57:34.255Z,12.4
2019-01-22T06:58:32.009Z,12.4
2019-01-22T06:59:33.840Z,12.4
2019-01-22T07:00:34.151Z,12.4
2019-01-22T07:01:33.812Z,12.4
2019-01-22T07:02:32.892Z,12.4
2019-01-22T07:03:32.936Z,9.5
2019-01-22T07:04:34.192Z,12.4
2019-01-22T07:05:32.469Z,12.4
2019-01-22T07:06:33.890Z,9.5
2019-01-22T07:07:34.467Z,9.5
2019-01-22T07:08:32.916Z,9.5
2019-01-22T07:09:33.085Z,6.6
2019-01-22T07:10:31.772Z,9.5
2019-01-22T07:11:31.582Z,9.5
2019-01-22T07:12:33.468Z,12.4
2019-01-22T07:13:33.693Z,12.4
2019-01-22T07:14:32.379Z,12.4
2019-01-22T07:15:32.886Z,15.4
2019-01-22T07:16:34.304Z,15.4
2019-01-22T07:17:32.656Z,15.4
2019-01-22T07:18:32.942Z,15.4
2019-01-22T07:19:45.188Z,15.4
2019-01-22T07:20:33.412Z,12.4
2019-01-22T07:21:33.873Z,15.4
2019-01-22T07:23:35.934Z,12.4
2019-01-22T07:24:37.959Z,12.4
2019-01-22T07:25:37.328Z,9.5
2019-01-22T07:26:35.711Z,9.5
2019-01-22T07:27:36.177Z,3.9
2019-01-22T07:28:36.579Z,1.8
2019-01-22T07:29:37.424Z,1.8
2019-01-22T07:30:40.191Z,3.9
2019-01-22T07:31:35.244Z,1.8
2019-01-22T07:32:35.531Z,6.6
2019-01-22T07:33:36.349Z,6.6
2019-01-22T07:34:35.877Z,9.5
2019-01-22T07:35:36.457Z,9.5
2019-01-22T07:36:33.950Z,9.5
2019-01-22T07:37:34.011Z,9.5
2019-01-22T07:38:33.981Z,6.6
2019-01-22T07:39:34.040Z,6.6
2019-01-22T07:40:34.056Z,6.6
2019-01-22T07:41:33.957Z,9.5
2019-01-22T07:42:34.062Z,6.6
2019-01-22T07:43:33.976Z,6.6
2019-01-22T07:44:33.998Z,6.6
2019-01-22T07:45:33.970Z,6.6
2019-01-22T07:46:33.975Z,6.6
2019-01-22T07:47:33.965Z,9.5
2019-01-22T07:48:33.978Z,9.5
2019-01-22T07:49:33.967Z,9.5
2019-01-22T07:50:33.975Z,15.4
2019-01-22T07:51:34.106Z,15.4
2019-01-22T07:52:33.933Z,9.5
2019-01-22T07:53:43.879Z,9.5
2019-01-22T07:54:34.067Z,9.5
2019-01-22T07:55:33.979Z,12.4
2019-01-22T07:56:33.978Z,6.6
2019-01-22T07:57:33.961Z,12.4
2019-01-22T07:58:33.998Z,12.4
2019-01-22T07:59:34.076Z,12.4
2019-01-22T08:00:33.966Z,15.4
2019-01-22T08:01:33.969Z,15.4
2019-01-22T08:02:33.972Z,12.4
2019-01-22T08:03:33.995Z,12.4
2019-01-22T08:04:34.062Z,15.4
2019-01-22T08:05:33.974Z,18.3
2019-01-22T08:06:33.951Z,15.4
2019-01-22T08:07:33.975Z,18.3
2019-01-22T08:08:33.956Z,18.3
2019-01-22T08:09:34.028Z,18.3
2019-01-22T08:10:33.973Z,21.3
2019-01-22T08:11:33.995Z,21.3
2019-01-22T08:12:33.983Z,18.3
2019-01-22T08:13:34.038Z,18.3
2019-01-22T08:14:33.912Z,15.4
2019-01-22T08:15:33.966Z,15.4
2019-01-22T08:16:34.070Z,18.3
2019-01-22T08:17:33.980Z,18.3
2019-01-22T08:18:33.974Z,18.3
2019-01-22T08:19:33.974Z,15.4
2019-01-22T08:20:33.986Z,15.4
2019-01-22T08:21:33.966Z,15.4
2019-01-22T08:22:33.972Z,18.3
2019-01-22T08:23:33.985Z,15.4
2019-01-22T08:24:34.006Z,15.4
2019-01-22T08:25:33.986Z,15.4
2019-01-22T08:26:34.009Z,12.4
2019-01-22T08:27:33.969Z,12.4
2019-01-22T08:28:33.946Z,15.4
2019-01-22T08:29:33.944Z,15.4
2019-01-22T08:30:34.014Z,15.4
2019-01-22T08:31:33.906Z,15.4
2019-01-22T08:32:34.011Z,12.4
2019-01-22T08:33:33.964Z,12.4
2019-01-22T08:34:33.967Z,15.4
2019-01-22T08:35:34.043Z,12.4
2019-01-22T08:36:33.937Z,9.5
2019-01-22T08:37:33.997Z,9.5
2019-01-22T08:38:33.915Z,9.5
2019-01-22T08:39:33.916Z,9.5
2019-01-22T08:40:33.956Z,9.5
2019-01-22T08:41:33.912Z,9.5
2019-01-22T08:42:33.938Z,12.4
2019-01-22T08:43:34.001Z,12.4
2019-01-22T08:44:33.945Z,9.5
2019-01-22T08:45:33.902Z,9.5
2019-01-22T08:46:34.005Z,6.6
2019-01-22T08:47:33.988Z,6.6
2019-01-22T08:48:33.959Z,9.5
2019-01-22T08:49:33.938Z,9.5
2019-01-22T08:50:33.981Z,9.5
2019-01-22T08:51:33.978Z,12.4
2019-01-22T08:52:33.970Z,12.4
2019-01-22T08:53:33.951Z,12.4
2019-01-22T08:54:33.954Z,12.4
2019-01-22T08:55:33.955Z,12.4
2019-01-22T08:56:34.942Z,9.5
2019-01-22T08:57:38.719Z,6.6
2019-01-22T08:58:33.911Z,6.6
2019-01-22T08:59:33.947Z,6.6
2019-01-22T09:00:35.509Z,6.6
2019-01-22T09:01:37.952Z,6.6
2019-01-22T09:02:34.017Z,6.6
2019-01-22T09:03:33.916Z,6.6
2019-01-22T09:04:34.023Z,3.9
2019-01-22T09:05:33.974Z,3.9
2019-01-22T09:06:34.008Z,3.9
2019-01-22T09:07:33.964Z,3.9
2019-01-22T09:08:33.945Z,3.9
2019-01-22T09:09:33.897Z,3.9
2019-01-22T09:10:34.011Z,6.6
2019-01-22T09:11:33.951Z,3.9
2019-01-22T09:12:33.966Z,6.6
2019-01-22T09:13:33.976Z,3.9
2019-01-22T09:14:33.985Z,3.9
2019-01-22T09:15:33.938Z,0
2019-01-22T09:16:33.950Z,3.9
2019-01-22T09:17:33.962Z,3.9
2019-01-22T09:18:34.049Z,3.9
2019-01-22T09:19:33.949Z,3.9
2019-01-22T09:20:33.965Z,3.9
2019-01-22T09:21:33.962Z,3.9
2019-01-22T09:22:33.959Z,3.9
2019-01-22T09:23:34.020Z,1.8
2019-01-22T09:24:33.977Z,1.8
2019-01-22T09:25:33.924Z,3.9
2019-01-22T09:26:34.042Z,0
2019-01-22T09:27:33.956Z,0
2019-01-22T09:28:33.983Z,0
2019-01-22T09:29:38.185Z,0
2019-01-22T09:30:34.021Z,0
2019-01-22T09:31:33.924Z,0
2019-01-22T09:32:33.951Z,0
2019-01-22T09:33:33.951Z,0
2019-01-22T09:34:34.058Z,0
2019-01-22T09:35:33.952Z,0
2019-01-22T09:36:33.961Z,3.9
2019-01-22T09:37:33.980Z,3.9
2019-01-22T09:38:33.958Z,0
2019-01-22T09:39:33.973Z,0
2019-01-22T09:40:33.974Z,0
2019-01-22T09:41:33.954Z,1.8
2019-01-22T09:42:33.937Z,0
2019-01-22T09:43:33.967Z,0
2019-01-22T09:44:33.995Z,0
2019-01-22T09:45:34.031Z,0
2019-01-22T09:46:34.106Z,1.8
2019-01-22T09:47:33.928Z,0
2019-01-22T09:48:33.948Z,0
2019-01-22T09:49:35.398Z,0
2019-01-22T09:50:35.504Z,0
2019-01-22T09:51:33.999Z,0
2019-01-22T09:52:33.901Z,0
2019-01-22T09:53:33.913Z,0
2019-01-22T09:54:33.938Z,0
2019-01-22T09:55:34.059Z,0
2019-01-22T09:56:33.986Z,0
2019-01-22T09:57:33.954Z,1.8
2019-01-22T09:58:33.928Z,0
2019-01-22T09:59:33.959Z,0
2019-01-22T10:00:34.014Z,0
2019-01-22T10:01:33.940Z,0
2019-01-22T10:02:33.978Z,0
2019-01-22T10:03:33.906Z,0
2019-01-22T10:04:33.958Z,0
2019-01-22T10:05:33.944Z,0
2019-01-22T10:06:34.181Z,0
2019-01-22T10:07:34.085Z,1.8
2019-01-22T10:08:33.895Z,0
2019-01-22T10:09:33.893Z,0
2019-01-22T10:10:33.968Z,0
2019-01-22T10:11:34.099Z,0
2019-01-22T10:12:33.941Z,0
2019-01-22T10:13:33.941Z,0
2019-01-22T10:14:33.900Z,0
2019-01-22T10:15:33.942Z,0
2019-01-22T10:16:34.018Z,6.6
2019-01-22T10:17:34.006Z,1.8
2019-01-22T10:18:33.961Z,3.9
2019-01-22T10:19:33.973Z,1.8
2019-01-22T10:20:33.907Z,0
2019-01-22T10:21:33.978Z,3.9
2019-01-22T10:22:34.038Z,1.8
2019-01-22T10:23:33.950Z,1.8
2019-01-22T10:24:33.945Z,3.9
2019-01-22T10:25:33.893Z,6.6
2019-01-22T10:26:33.936Z,6.6
2019-01-22T10:27:34.017Z,3.9
2019-01-22T10:28:34.029Z,1.8
2019-01-22T10:29:33.926Z,1.8
2019-01-22T10:30:33.912Z,0
2019-01-22T10:31:33.937Z,1.8
2019-01-22T10:32:33.949Z,6.6
2019-01-22T10:33:34.014Z,6.6
2019-01-22T10:34:33.964Z,3.9
2019-01-22T10:35:33.980Z,3.9
2019-01-22T10:36:33.924Z,0
2019-01-22T10:37:33.960Z,0
2019-01-22T10:38:34.029Z,0
2019-01-22T10:39:33.952Z,3.9
2019-01-22T10:40:33.963Z,6.6
2019-01-22T10:41:33.919Z,6.6
2019-01-22T10:42:33.923Z,9.5
2019-01-22T10:43:34.026Z,6.6
2019-01-22T10:44:33.938Z,0
2019-01-22T10:45:33.941Z,3.9
2019-01-22T10:46:33.982Z,3.9
2019-01-22T10:47:33.895Z,6.6
2019-01-22T10:48:34.058Z,6.6
2019-01-22T10:49:34.020Z,3.9
2019-01-22T10:50:38.332Z,3.9
2019-01-22T10:51:33.965Z,1.8
2019-01-22T10:52:33.928Z,1.8
2019-01-22T10:53:33.959Z,0
2019-01-22T10:54:34.037Z,0
2019-01-22T10:55:38.679Z,0
2019-01-22T10:56:34.037Z,0
2019-01-22T10:57:33.966Z,0
2019-01-22T10:58:33.906Z,3.9
2019-01-22T10:59:33.941Z,6.6
2019-01-22T11:00:34.071Z,0
2019-01-22T11:01:34.052Z,0
2019-01-22T11:02:33.972Z,0
2019-01-22T11:03:33.905Z,0
2019-01-22T11:04:33.934Z,1.8
2019-01-22T11:05:34.028Z,0
2019-01-22T11:06:33.985Z,0
2019-01-22T11:07:33.988Z,0
2019-01-22T11:08:33.927Z,3.9
2019-01-22T11:09:34.015Z,3.9
2019-01-22T11:10:33.982Z,0
2019-01-22T11:11:34.056Z,6.6
2019-01-22T11:12:33.989Z,1.8
2019-01-22T11:13:34.022Z,0
2019-01-22T11:14:33.917Z,0
2019-01-22T11:15:33.975Z,0
2019-01-22T11:16:33.945Z,0
2019-01-22T11:17:34.008Z,0
2019-01-22T11:18:33.946Z,0
2019-01-22T11:19:33.894Z,0
2019-01-22T11:20:33.918Z,0
2019-01-22T11:21:33.953Z,3.9
2019-01-22T11:22:34.036Z,1.8
2019-01-22T11:23:33.982Z,0
2019-01-22T11:24:33.977Z,0
2019-01-22T11:25:33.891Z,0
2019-01-22T11:26:33.954Z,0
2019-01-22T11:27:33.985Z,0
2019-01-22T11:28:34.045Z,3.9
2019-01-22T11:29:33.902Z,0
2019-01-22T11:30:33.972Z,0
2019-01-22T11:31:33.943Z,0
2019-01-22T11:32:34.003Z,1.8
2019-01-22T11:33:35.862Z,3.9
2019-01-22T11:34:33.935Z,0
2019-01-22T11:35:33.960Z,3.9
2019-01-22T11:36:33.907Z,0
2019-01-22T11:37:34.023Z,0
2019-01-22T11:38:33.950Z,3.9
2019-01-22T11:39:33.889Z,1.8
2019-01-22T11:40:34.926Z,1.8
2019-01-22T11:41:33.936Z,3.9
2019-01-22T11:42:33.974Z,1.8
2019-01-22T11:43:34.010Z,0
2019-01-22T11:44:33.942Z,3.9
2019-01-22T11:45:33.941Z,3.9
2019-01-22T11:46:34.017Z,6.6
2019-01-22T11:47:33.913Z,0
2019-01-22T11:48:33.970Z,3.9
2019-01-22T11:49:34.008Z,3.9
2019-01-22T11:50:33.945Z,1.8
2019-01-22T11:51:33.971Z,6.6
2019-01-22T11:52:33.933Z,3.9
2019-01-22T11:53:33.913Z,0
2019-01-22T11:54:34.033Z,0
2019-01-22T11:55:33.952Z,1.8
2019-01-22T11:56:33.936Z,6.6
2019-01-22T11:57:33.952Z,3.9
2019-01-22T11:58:33.900Z,3.9
2019-01-22T11:59:34.030Z,1.8
2019-01-22T12:00:33.938Z,3.9
2019-01-22T12:01:33.949Z,9.5
2019-01-22T12:02:34.649Z,3.9
2019-01-22T12:03:33.924Z,6.6
2019-01-22T12:04:33.972Z,1.8
2019-01-22T12:05:33.969Z,1.8
2019-01-22T12:06:43.811Z,6.6
2019-01-22T12:07:33.953Z,6.6
2019-01-22T12:08:33.943Z,12.4
2019-01-22T12:09:33.965Z,9.5
2019-01-22T12:10:33.949Z,3.9
2019-01-22T12:11:33.932Z,1.8
2019-01-22T12:12:33.934Z,0
2019-01-22T12:13:33.931Z,3.9
2019-01-22T12:14:33.971Z,1.8
2019-01-22T12:15:34.026Z,0
2019-01-22T12:16:33.954Z,3.9
2019-01-22T12:17:33.947Z,9.5
2019-01-22T12:18:33.938Z,6.6
2019-01-22T12:19:33.996Z,6.6
2019-01-22T12:20:34.012Z,6.6
2019-01-22T12:21:33.959Z,1.8
2019-01-22T12:22:33.984Z,6.6
2019-01-22T12:23:33.961Z,1.8
2019-01-22T12:24:33.941Z,3.9
2019-01-22T12:25:33.961Z,1.8
2019-01-22T12:26:33.946Z,3.9
2019-01-22T12:27:33.986Z,1.8
2019-01-22T12:28:33.910Z,1.8
2019-01-22T12:29:33.946Z,3.9
2019-01-22T12:30:34.118Z,3.9
2019-01-22T12:31:38.188Z,3.9
2019-01-22T12:32:37.010Z,6.6
2019-01-22T12:33:37.780Z,3.9
2019-01-22T12:34:35.673Z,0
2019-01-22T12:35:34.059Z,3.9
2019-01-22T12:36:36.429Z,0
2019-01-22T12:37:36.355Z,0
2019-01-22T12:38:37.914Z,0
2019-01-22T12:39:35.646Z,9.5
2019-01-22T12:40:35.596Z,3.9
2019-01-22T12:41:35.682Z,0
2019-01-22T12:42:36.376Z,6.6
2019-01-22T12:43:38.183Z,1.8
2019-01-22T12:44:36.055Z,1.8
2019-01-22T12:45:36.290Z,0
2019-01-22T12:46:38.431Z,6.6
2019-01-22T12:47:36.763Z,1.8
2019-01-22T12:48:36.692Z,0
2019-01-22T12:49:35.112Z,6.6
2019-01-22T12:50:35.141Z,6.6
2019-01-22T12:51:35.725Z,6.6
2019-01-22T12:52:36.120Z,3.9
2019-01-22T12:53:36.411Z,9.5
2019-01-22T12:54:34.676Z,3.9
2019-01-22T12:55:34.805Z,0
2019-01-22T12:56:35.752Z,0
2019-01-22T12:57:37.086Z,6.6
2019-01-22T12:58:37.231Z,6.6
2019-01-22T12:59:36.283Z,6.6
2019-01-22T13:00:35.732Z,6.6
2019-01-22T13:01:36.670Z,1.8
2019-01-22T13:02:36.519Z,1.8
2019-01-22T13:03:36.446Z,3.9
2019-01-22T13:04:36.417Z,0
2019-01-22T13:05:35.074Z,6.6
2019-01-22T13:06:36.732Z,9.5
2019-01-22T13:07:34.306Z,6.6
2019-01-22T13:08:34.075Z,9.5
2019-01-22T13:09:34.054Z,3.9
2019-01-22T13:10:33.921Z,3.9
2019-01-22T13:11:33.988Z,1.8
2019-01-22T13:12:36.150Z,3.9
2019-01-22T13:13:35.914Z,9.5
2019-01-22T13:14:34.098Z,6.6
2019-01-22T13:15:34.066Z,9.5
2019-01-22T13:16:33.963Z,1.8
2019-01-22T13:17:34.616Z,1.8
2019-01-22T13:18:33.927Z,6.6
2019-01-22T13:19:34.005Z,0
2019-01-22T13:20:33.948Z,3.9
2019-01-22T13:21:33.907Z,3.9
2019-01-22T13:22:33.875Z,6.6
2019-01-22T13:23:33.935Z,3.9
2019-01-22T13:24:33.931Z,9.5
2019-01-22T13:25:34.642Z,6.6
2019-01-22T13:26:34.421Z,3.9
2019-01-22T13:27:35.509Z,3.9
2019-01-22T13:28:34.652Z,6.6
2019-01-22T13:29:34.245Z,6.6
2019-01-22T13:30:35.573Z,9.5
2019-01-22T13:31:34.359Z,6.6
2019-01-22T13:32:34.050Z,6.6
2019-01-22T13:33:34.305Z,3.9
2019-01-22T13:34:34.023Z,6.6
2019-01-22T13:35:34.500Z,3.9
2019-01-22T13:36:33.931Z,6.6
2019-01-22T13:37:33.897Z,6.6
2019-01-22T13:38:34.790Z,15.4
2019-01-22T13:39:34.060Z,6.6
2019-01-22T13:40:33.947Z,3.9
2019-01-22T13:41:34.493Z,3.9
2019-01-22T13:42:35.619Z,9.5
2019-01-22T13:43:34.160Z,9.5
2019-01-22T13:44:34.482Z,15.4
2019-01-22T13:45:34.170Z,12.4
2019-01-22T13:46:36.484Z,12.4
2019-01-22T13:47:34.471Z,12.4
2019-01-22T13:48:33.960Z,18.3
2019-01-22T13:49:34.614Z,15.4
2019-01-22T13:50:35.508Z,3.9
2019-01-22T13:51:34.388Z,6.6
2019-01-22T13:52:34.333Z,6.6
2019-01-22T13:53:34.268Z,3.9
2019-01-22T13:54:34.520Z,1.8
2019-01-22T13:55:34.529Z,3.9
2019-01-22T13:56:34.235Z,6.6
2019-01-22T13:57:35.692Z,3.9
2019-01-22T13:58:34.464Z,9.5
2019-01-22T13:59:34.689Z,3.9
2019-01-22T14:00:34.439Z,6.6
2019-01-22T14:01:34.137Z,0
2019-01-22T14:02:35.244Z,0
2019-01-22T14:03:34.848Z,1.8
2019-01-22T14:04:35.759Z,6.6
2019-01-22T14:05:33.915Z,6.6